Terminal Aerodrome Forecast
Issued by NWS Topeka, KS

Home | Current Version | Previous Version | Graphics & Text | Print | Product List | Glossary On
Versions: 1 2 3 4 5 6 7 8 9 10 11 12 13 14 15 16 17 18 19 20 21 22 23 24 25 26 27 28
085
FTUS43 KTOP 221544 AAC
TAFTOP
TAF AMD
KTOP 221544Z 2216/2312 01009KT P6SM SCT070 BKN250
     FM221645 36011KT 5SM BR BKN008
     FM221800 35013KT P6SM BKN014
     FM222200 33011KT P6SM BKN021
     FM230100 32006KT P6SM SCT025 SCT100=

USA.gov is the U.S. government's official web portal to all federal, state and local government web resources and services.